Flight Track Log - Related Links

Times and Time Zones

All times are in EDT time to prevent confusion due to time zone crossing. See the ASQ5685 flight status page for this flight to view local times or setup timezone preferences in your user account.

Time Position Orientation Groundspeed Altitude Reporting Facility
EDT Latitude Longitude Course Direction KTS MPH feet Rate Location/Type
Thu 09:48:31 AM 33.6500 -84.3833 69° East 178 205 2,200  Level Atlanta TRACON
Thu 09:49:19 AM 33.6500 -84.3333 90° East 209 241 3,500 2,000 Climbing Atlanta TRACON
Thu 09:50:25 AM 33.6667 -84.2333 79° East 257 296 6,000 2,182 Climbing Atlanta TRACON
Thu 09:51:00 AM 33.9557 -84.0481 53° Northeast  Level Estimated
Thu 09:51:31 AM 33.7000 -84.1333 68° East 286 329 8,300  Level Atlanta TRACON
Thu 09:52:00 AM 33.9966 -83.9221 69° East  Level FlightAware Approximate
Thu 09:52:43 AM 33.7378 -84.0314 66° East 303 349 10,400  Level Atlanta Center
Thu 09:53:00 AM 34.0372 -83.7960 69° East  Level FlightAware Approximate
Thu 09:53:43 AM 33.7900 -83.9439 54° Northeast 315 362 11,400  Level Atlanta Center
Thu 09:54:43 AM 33.8525 -83.8436 53° Northeast 352 405 12,500 950 Climbing Atlanta Center
Thu 09:55:43 AM 33.9067 -83.7536 54° Northeast 367 422 13,300 900 Climbing Atlanta Center
Thu 09:56:43 AM 33.9753 -83.6456 53° Northeast 382 440 14,300 1,150 Climbing Atlanta Center
Thu 09:57:43 AM 34.0417 -83.5375 53° Northeast 401 461 15,600 1,250 Climbing Atlanta Center
Thu 09:58:43 AM 34.1142 -83.4267 52° Northeast 401 461 16,800 1,100 Climbing Atlanta Center
Thu 09:59:43 AM 34.1803 -83.3181 54° Northeast 406 467 17,800 900 Climbing Atlanta Center
Thu 10:00:43 AM 34.2528 -83.2019 53° Northeast 420 483 18,600 900 Climbing Atlanta Center
Thu 10:01:43 AM 34.3228 -83.0906 53° Northeast 415 478 19,600 950 Climbing Atlanta Center
Thu 10:02:43 AM 34.3950 -82.9739 53° Northeast 422 486 20,500 900 Climbing Atlanta Center
Thu 10:03:43 AM 34.4750 -82.8469 53° Northeast 422 486 21,400 850 Climbing Atlanta Center
Thu 10:04:43 AM 34.5450 -82.7300 54° Northeast 435 501 22,200 800 Climbing Atlanta Center
Thu 10:05:43 AM 34.6167 -82.6078 55° Northeast 435 501 23,000 800 Climbing Atlanta Center
Thu 10:06:43 AM 34.6903 -82.4928 52° Northeast 435 501 23,800 800 Climbing Atlanta Center
Thu 10:07:43 AM 34.7658 -82.3725 53° Northeast 435 501 24,600 750 Climbing Atlanta Center
Thu 10:08:43 AM 34.8394 -82.2522 53° Northeast 440 506 25,300 700 Climbing Atlanta Center
Thu 10:09:43 AM 34.9128 -82.1314 53° Northeast 440 506 26,000 700 Climbing Atlanta Center
Thu 10:10:43 AM 34.9858 -82.0106 54° Northeast 445 512 26,700 700 Climbing Atlanta Center
Thu 10:11:43 AM 35.0589 -81.8869 54° Northeast 440 506 27,400 700 Climbing Atlanta Center
Thu 10:12:43 AM 35.1233 -81.7611 58° Northeast 440 506 28,100 650 Climbing Atlanta Center
Thu 10:13:43 AM 35.1817 -81.6475 58° Northeast 440 506 28,700 450 Climbing Atlanta Center
Thu 10:14:43 AM 35.2500 -81.5208 57° Northeast 440 506 29,000 150 Climbing Atlanta Center
Thu 10:15:43 AM 35.3183 -81.3892 58° Northeast 451 519 29,000  Level Atlanta Center
Thu 10:16:43 AM 35.3861 -81.2519 59° Northeast 463 533 29,000  Level Atlanta Center
Thu 10:17:43 AM 35.4581 -81.1142 57° Northeast 463 533 29,000  Level Atlanta Center
Thu 10:18:43 AM 35.5297 -80.9764 57° Northeast 473 544 29,000  Level Atlanta Center
Thu 10:19:43 AM 35.6036 -80.8383 57° Northeast 473 544 29,000  Level Atlanta Center
Thu 10:20:43 AM 35.6750 -80.7000 58° Northeast 473 544 29,000  Level Atlanta Center
Thu 10:22:31 AM 35.8028 -80.4503 58° Northeast 483 556 29,000  Level Washington Center
Thu 10:23:32 AM 35.8708 -80.3161 58° Northeast 478 550 29,000  Level Washington Center
Thu 10:24:33 AM 35.9456 -80.1642 59° Northeast 478 550 29,000  Level Washington Center
Thu 10:25:34 AM 36.0147 -80.0472 54° Northeast 467 537 29,000  Level Washington Center
Thu 10:26:34 AM 36.0844 -79.9125 57° Northeast 467 537 29,000  Level Washington Center
Thu 10:27:33 AM 36.1667 -79.7653 55° Northeast 467 537 29,000  Level Washington Center
Thu 10:28:33 AM 36.2403 -79.6325 55° Northeast 474 545 29,000  Level Washington Center
Thu 10:29:32 AM 36.3175 -79.5000 54° Northeast 474 545 29,000  Level Washington Center
Thu 10:30:32 AM 36.3886 -79.3667 56° Northeast 474 545 29,000  Level Washington Center
Thu 10:31:32 AM 36.4636 -79.2361 54° Northeast 474 545 29,000 -248 Level Washington Center
Thu 10:32:33 AM 36.5319 -79.1178 54° Northeast 474 545 28,500 -992 Descending Washington Center
Thu 10:33:33 AM 36.6089 -78.9842 54° Northeast 474 545 27,000 -1,488 Descending Washington Center
Thu 10:34:34 AM 36.6794 -78.8422 58° Northeast 474 545 25,500 -1,008 Descending Washington Center
Thu 10:35:32 AM 36.7628 -78.6953 55° Northeast 479 551 25,000 -504 Descending Washington Center
Thu 10:36:33 AM 36.8494 -78.5664 50° Northeast 479 551 24,500 -744 Descending Washington Center
Thu 10:37:33 AM 36.9522 -78.4586 40° Northeast 474 545 23,500 -966 Descending Washington Center
Thu 10:38:31 AM 37.0550 -78.3481 41° Northeast 479 551 22,600 -756 Descending Washington Center
Thu 10:39:32 AM 37.1469 -78.2469 41° Northeast 484 557 22,000 -295 Descending Washington Center
Thu 10:40:33 AM 37.2539 -78.1281 41° Northeast 478 550 22,000  Level Washington Center
Thu 10:41:34 AM 37.3539 -78.0242 40° Northeast 472 543 22,000  Level Washington Center
Thu 10:42:32 AM 37.4522 -77.9122 42° Northeast 472 543 22,000  Level Washington Center
Thu 10:43:33 AM 37.5583 -77.8108 37° Northeast 472 543 22,000 -595 Level Washington Center
Thu 10:44:33 AM 37.6806 -77.7383 25° Northeast 472 543 20,800 -1,884 Descending Washington Center
Thu 10:45:34 AM 37.7944 -77.6731 24° Northeast 465 535 18,200 -2,471 Descending Washington Center
Thu 10:46:32 AM 37.9039 -77.6103 24° Northeast 440 506 15,900 -2,420 Descending Washington Center
Thu 10:47:33 AM 38.0050 -77.5497 25° Northeast 418 481 13,400 -2,213 Descending Washington Center
Thu 10:48:34 AM 38.0978 -77.4967 24° Northeast 386 444 11,400 -1,686 Descending Washington Center
Thu 10:49:34 AM 38.1839 -77.4461 25° Northeast 357 411 10,000 -1,068 Descending Washington Center
Thu 10:50:32 AM 38.2631 -77.4481 359° North 295 339 9,300 -1,169 Descending Washington Center
Thu 10:51:32 AM 38.3467 -77.4503 359° North 295 339 7,700 -1,541 Descending Washington Center
Thu 10:53:35 AM 38.5167 -77.4500 360° North 274 315 4,600 -1,508 Descending Potomac TRACON
Thu 10:54:35 AM 38.5833 -77.4333 11° North 266 306 3,100 -821 Descending Potomac TRACON
Thu 10:55:32 AM 38.6447 -77.4417 354° North 260 299 3,000 -51 Descending Washington Center
Thu 10:56:32 AM 38.7075 -77.4406 North 238 274 3,000  Level Washington Center
Thu 10:57:29 AM 38.7667 -77.4333 North 206 237 3,000 -308 Level Potomac TRACON
Thu 10:58:29 AM 38.8167 -77.4333 360° North 194 223 2,400 -730 Descending Potomac TRACON
Thu 10:59:24 AM 38.8667 -77.4333 360° North 176 203 1,600 -843 Descending Potomac TRACON
Thu 11:00:30 AM 38.9000 -77.4333 360° North 141 162 700 -818 Descending Potomac TRACON
Thu 11:02:00 AM 38.9474 -77.4599 North  Level Estimated
Thu 11:09:00 AM 38.9474 -77.4599 195° South  Level Estimated
Thu 11:10:00 AM 38.9474 -77.4599 195° South  Level Estimated

Login

Don't have an account? Register now (free) for customized features, flight alerts, and more!